Time;durP1;ratioP1;P1;durP2;ratioP2;P2;SDS_P1;SDS_P2;PMS_P1;PMS_P2;Temp;Humidity;BMP_temperature;BMP_pressure;BME280_temperature;BME280_humidity;BME280_pressure;Samples;Min_cycle;Max_cycle;Signal;HPM_P1;HPM_P2
2022/01/28 00:00:36;;;;;;;15.37;6.30;;;7.80;96.90;;;;;;5061575;28;20168;-87
2022/01/28 00:05:31;;;;;;;12.73;5.73;;;7.80;96.10;;;;;;5079703;28;20222;-88
2022/01/28 00:07:56;;;;;;;15.07;6.87;;;7.80;96.00;;;;;;5060472;28;20616;-88
2022/01/28 00:10:26;;;;;;;14.53;5.30;;;7.90;96.30;;;;;;5060597;28;20172;-88
2022/01/28 00:15:29;;;;;;;16.60;7.23;;;7.80;96.00;;;;;;5095821;28;20176;-88
2022/01/28 00:40:29;;;;;;;16.10;7.53;;;7.20;99.90;;;;;;5066111;28;20669;-89
2022/01/28 00:42:56;;;;;;;18.27;8.27;;;7.20;99.90;;;;;;5086559;28;20186;-88
2022/01/28 00:45:23;;;;;;;19.83;7.37;;;7.20;99.90;;;;;;5064060;28;20165;-88
2022/01/28 00:47:51;;;;;;;14.37;7.23;;;7.20;99.90;;;;;;5079981;28;20176;-90
2022/01/28 00:50:17;;;;;;;15.93;7.73;;;7.20;99.90;;;;;;5061506;28;20207;-88
2022/01/28 00:52:43;;;;;;;16.00;7.27;;;7.20;99.90;;;;;;5063970;28;20168;-87
2022/01/28 00:55:09;;;;;;;16.73;7.53;;;7.20;99.90;;;;;;5083223;28;20169;-87
2022/01/28 00:57:35;;;;;;;19.07;7.30;;;7.10;99.90;;;;;;5083417;28;20245;-87
2022/01/28 01:00:08;;;;;;;17.07;7.73;;;7.10;99.90;;;;;;5078765;28;20180;-88
2022/01/28 01:02:34;;;;;;;15.53;6.83;;;7.10;99.90;;;;;;5060749;28;20168;-89
2022/01/28 01:05:02;;;;;;;13.27;6.83;;;7.00;99.90;;;;;;5060730;28;20546;-89
2022/01/28 01:07:30;;;;;;;17.93;7.13;;;7.00;99.90;;;;;;5059339;28;20172;-89
2022/01/28 01:09:57;;;;;;;16.90;7.83;;;7.00;99.90;;;;;;5059705;28;20207;-88
2022/01/28 01:12:25;;;;;;;14.17;7.20;;;7.00;99.90;;;;;;5060577;28;20179;-88
2022/01/28 01:14:51;;;;;;;15.20;7.50;;;7.00;99.90;;;;;;5060155;28;20233;-88
2022/01/28 01:20:35;;;;;;;13.93;7.87;;;7.00;99.90;;;;;;5023112;28;20186;-89
2022/01/28 01:23:14;;;;;;;12.37;7.30;;;7.00;99.90;;;;;;5059829;28;20172;-88
2022/01/28 01:25:50;;;;;;;15.67;7.43;;;7.00;99.90;;;;;;5059532;28;20206;-88
2022/01/28 01:28:19;;;;;;;13.87;7.97;;;7.10;99.90;;;;;;5060479;28;20175;-88
2022/01/28 01:30:45;;;;;;;11.90;7.67;;;7.00;99.90;;;;;;5059921;28;20180;-88
2022/01/28 01:33:12;;;;;;;14.57;7.83;;;6.90;99.90;;;;;;5060289;28;20199;-87
2022/01/28 01:35:39;;;;;;;17.33;7.43;;;7.00;99.90;;;;;;5061220;28;20200;-87
2022/01/28 01:38:07;;;;;;;14.60;8.23;;;6.70;99.90;;;;;;5060574;28;20573;-87
2022/01/28 01:40:42;;;;;;;15.87;8.17;;;6.50;99.90;;;;;;5060253;28;20176;-86
2022/01/28 01:43:16;;;;;;;19.73;8.93;;;6.50;99.90;;;;;;5080742;28;20184;-89
2022/01/28 01:54:13;;;;;;;19.10;9.90;;;6.40;99.90;;;;;;5082973;28;20205;-89
2022/01/28 01:56:40;;;;;;;15.07;8.23;;;6.20;99.90;;;;;;5064158;28;20559;-88
2022/01/28 01:59:08;;;;;;;16.37;8.77;;;6.10;99.90;;;;;;5059787;28;20172;-88
2022/01/28 02:01:34;;;;;;;20.73;7.80;;;6.00;99.90;;;;;;5059230;28;20242;-87
2022/01/28 02:04:00;;;;;;;12.57;8.20;;;5.90;99.90;;;;;;5059389;28;20184;-90
2022/01/28 02:06:25;;;;;;;14.17;8.27;;;6.00;99.90;;;;;;5058533;28;20184;-88
2022/01/28 02:08:51;;;;;;;16.33;8.40;;;6.00;99.90;;;;;;5059186;28;20172;-87
2022/01/28 02:11:17;;;;;;;14.80;9.03;;;5.90;99.90;;;;;;5058637;28;20232;-86
2022/01/28 02:13:51;;;;;;;16.17;9.80;;;5.90;99.90;;;;;;5060775;28;20191;-87
2022/01/28 02:16:17;;;;;;;17.97;9.10;;;5.90;99.90;;;;;;5086682;28;20218;-87
2022/01/28 02:18:43;;;;;;;19.73;8.47;;;5.90;99.90;;;;;;5070863;28;20172;-86
2022/01/28 02:21:12;;;;;;;18.17;10.07;;;5.80;99.90;;;;;;5074459;28;20198;-87
2022/01/28 02:23:39;;;;;;;16.87;9.03;;;5.80;99.90;;;;;;5058772;28;20179;-87
2022/01/28 02:26:15;;;;;;;15.37;8.70;;;5.90;99.90;;;;;;5076352;28;20751;-87
2022/01/28 02:28:44;;;;;;;14.47;8.90;;;6.00;99.90;;;;;;5057471;28;20184;-88
2022/01/28 02:31:09;;;;;;;13.40;8.80;;;6.00;99.90;;;;;;5041393;28;20179;-87
2022/01/28 02:33:35;;;;;;;16.33;9.23;;;6.20;99.90;;;;;;5058126;28;20180;-87
2022/01/28 02:36:06;;;;;;;15.17;9.43;;;6.00;99.90;;;;;;5059157;28;20214;-87
2022/01/28 02:38:32;;;;;;;15.47;8.50;;;5.90;99.90;;;;;;5060013;28;20211;-88
2022/01/28 02:41:00;;;;;;;14.37;9.00;;;5.80;99.90;;;;;;5059751;28;20199;-87
2022/01/28 02:43:37;;;;;;;14.63;8.87;;;5.70;99.90;;;;;;5042638;28;20229;-88
2022/01/28 02:46:10;;;;;;;16.10;8.70;;;5.70;99.90;;;;;;5062460;28;20198;-89
2022/01/28 02:48:39;;;;;;;14.60;8.30;;;5.70;99.90;;;;;;5058291;28;20666;-88
2022/01/28 02:51:16;;;;;;;20.77;8.73;;;5.70;99.90;;;;;;5059606;28;20259;-86
2022/01/28 02:53:47;;;;;;;21.67;9.37;;;5.70;99.90;;;;;;5061089;28;20205;-90
2022/01/28 02:56:37;;;;;;;15.30;9.33;;;5.80;99.90;;;;;;5058435;28;20329;-88
2022/01/28 02:59:00;;;;;;;17.20;9.13;;;5.80;99.90;;;;;;5074331;28;20180;-89
2022/01/28 03:01:25;;;;;;;19.40;9.83;;;5.80;99.90;;;;;;5064326;28;20174;-86
2022/01/28 03:03:55;;;;;;;18.50;8.43;;;5.80;99.90;;;;;;5077618;28;20156;-87
2022/01/28 03:06:21;;;;;;;20.77;9.40;;;5.80;99.90;;;;;;5077302;28;20270;-87
2022/01/28 03:08:56;;;;;;;18.77;8.87;;;5.70;99.90;;;;;;5073306;28;20164;-87
2022/01/28 03:19:21;;;;;;;17.30;9.87;;;5.60;99.90;;;;;;5076143;28;20225;-88
2022/01/28 03:21:58;;;;;;;20.07;8.97;;;5.50;99.90;;;;;;5057438;28;20237;-88
2022/01/28 03:24:27;;;;;;;16.10;9.00;;;5.40;99.90;;;;;;5059094;28;20159;-89
2022/01/28 03:27:01;;;;;;;19.53;9.47;;;5.40;99.90;;;;;;5064337;28;20192;-87
2022/01/28 03:29:29;;;;;;;15.60;9.50;;;5.40;99.90;;;;;;5065639;28;20179;-87
2022/01/28 03:31:55;;;;;;;15.20;9.23;;;5.50;99.90;;;;;;5061360;28;20195;-88
2022/01/28 03:34:21;;;;;;;14.53;9.27;;;5.50;99.90;;;;;;5063088;28;20227;-88
2022/01/28 03:36:47;;;;;;;14.63;9.20;;;5.30;99.90;;;;;;5079538;28;20203;-87
2022/01/28 03:39:13;;;;;;;18.60;10.97;;;5.30;99.90;;;;;;5080281;28;20161;-89
2022/01/28 03:41:41;;;;;;;17.83;10.03;;;5.30;99.90;;;;;;5079890;28;20192;-88
2022/01/28 03:44:08;;;;;;;21.03;10.37;;;5.50;99.90;;;;;;5078550;28;20180;-88
2022/01/28 03:47:11;;;;;;;18.93;10.70;;;5.60;99.90;;;;;;5079818;28;20168;-88
2022/01/28 03:49:38;;;;;;;17.37;10.37;;;5.70;99.90;;;;;;5080818;28;20160;-89
2022/01/28 03:52:07;;;;;;;17.10;9.30;;;5.80;99.90;;;;;;5080667;28;20204;-88
2022/01/28 03:54:33;;;;;;;21.07;10.17;;;5.50;99.90;;;;;;5098019;28;20172;-88
2022/01/28 03:57:04;;;;;;;14.17;8.77;;;5.30;99.90;;;;;;5080280;28;20214;-89
2022/01/28 03:59:30;;;;;;;17.03;10.33;;;5.30;99.90;;;;;;5079934;28;20153;-90
2022/01/28 04:01:56;;;;;;;16.00;9.43;;;5.40;99.90;;;;;;5080368;28;20271;-89
2022/01/28 04:12:40;;;;;;;15.37;9.40;;;5.40;99.90;;;;;;5083112;28;20183;-89
2022/01/28 04:15:21;;;;;;;16.13;9.60;;;5.30;99.90;;;;;;5064755;28;20164;-88
2022/01/28 04:17:48;;;;;;;18.87;10.57;;;5.30;99.90;;;;;;5061967;28;20577;-90
2022/01/28 04:20:17;;;;;;;20.57;10.30;;;5.50;99.90;;;;;;5062024;28;20164;-88
2022/01/28 04:22:43;;;;;;;19.33;10.43;;;5.40;99.90;;;;;;5060968;28;20222;-88
2022/01/28 04:25:10;;;;;;;19.77;10.53;;;5.60;99.90;;;;;;5062050;28;20647;-88
2022/01/28 04:27:36;;;;;;;20.87;11.37;;;5.80;99.90;;;;;;5063040;28;20187;-90
2022/01/28 04:30:02;;;;;;;16.53;10.50;;;5.80;99.90;;;;;;5062623;28;20176;-90
2022/01/28 04:32:33;;;;;;;16.93;10.20;;;5.80;99.90;;;;;;5069932;28;20197;-90
2022/01/28 04:35:13;;;;;;;19.03;11.10;;;5.70;99.90;;;;;;5071207;28;20152;-88
2022/01/28 04:48:02;;;;;;;21.27;9.97;;;5.20;99.90;;;;;;5081239;28;20164;-90
2022/01/28 05:14:21;;;;;;;20.03;10.57;;;4.70;99.90;;;;;;5079034;28;20184;-89
2022/01/28 05:27:23;;;;;;;19.00;10.93;;;4.70;99.90;;;;;;5083668;28;20161;-89
2022/01/28 05:29:48;;;;;;;16.63;11.03;;;4.80;99.90;;;;;;5063752;28;20187;-89
2022/01/28 05:32:14;;;;;;;18.53;10.67;;;4.70;99.90;;;;;;5061893;28;20196;-90
2022/01/28 05:34:40;;;;;;;19.03;11.23;;;4.70;99.90;;;;;;5065098;28;20176;-88
2022/01/28 05:37:08;;;;;;;20.17;10.97;;;4.70;99.90;;;;;;5060339;28;20679;-88
2022/01/28 05:39:38;;;;;;;21.67;11.90;;;4.80;99.90;;;;;;5062836;28;20169;-89
2022/01/28 05:42:04;;;;;;;20.17;11.30;;;4.70;99.90;;;;;;5062731;28;20176;-89
2022/01/28 05:44:30;;;;;;;17.57;11.03;;;4.60;99.90;;;;;;5079350;28;20188;-90
2022/01/28 05:47:03;;;;;;;20.50;11.83;;;4.70;99.90;;;;;;5065311;28;20535;-90
2022/01/28 05:49:30;;;;;;;17.43;11.07;;;4.60;99.90;;;;;;5062597;28;20168;-88
2022/01/28 05:51:55;;;;;;;19.57;11.17;;;4.60;99.90;;;;;;5060846;28;20195;-89
2022/01/28 05:54:21;;;;;;;22.77;12.50;;;4.60;99.90;;;;;;5060438;28;20532;-88
2022/01/28 05:56:47;;;;;;;19.13;11.90;;;4.60;99.90;;;;;;5068033;28;20219;-90
2022/01/28 05:59:13;;;;;;;26.37;12.10;;;4.60;99.90;;;;;;5069517;28;20172;-89
2022/01/28 06:01:41;;;;;;;16.73;11.17;;;4.70;99.90;;;;;;5086855;28;20168;-89
2022/01/28 06:04:07;;;;;;;17.47;11.67;;;4.70;99.90;;;;;;5072587;28;20248;-89
2022/01/28 06:06:33;;;;;;;21.33;11.40;;;4.70;99.90;;;;;;5072753;28;20176;-88
2022/01/28 06:08:59;;;;;;;22.73;11.63;;;4.90;99.90;;;;;;5067636;28;20629;-88
2022/01/28 06:11:25;;;;;;;21.03;12.50;;;4.80;99.90;;;;;;5061055;28;20268;-89
2022/01/28 06:13:51;;;;;;;21.33;11.97;;;4.80;99.90;;;;;;5060624;28;20185;-89
2022/01/28 06:16:18;;;;;;;17.47;12.27;;;4.70;99.90;;;;;;5060477;28;20200;-88
2022/01/28 06:18:44;;;;;;;18.53;11.47;;;4.60;99.90;;;;;;5060771;28;20165;-89
2022/01/28 06:21:11;;;;;;;18.67;12.43;;;4.50;99.90;;;;;;5079082;28;20183;-89
2022/01/28 06:23:37;;;;;;;16.17;12.40;;;4.70;99.90;;;;;;5060443;28;20181;-89
2022/01/28 06:26:04;;;;;;;17.60;11.90;;;4.70;99.90;;;;;;5058880;28;20201;-89
2022/01/28 06:28:30;;;;;;;19.83;12.80;;;4.70;99.90;;;;;;5060732;28;20259;-91
2022/01/28 06:30:59;;;;;;;17.93;11.77;;;4.70;99.90;;;;;;5064896;28;20649;-90
2022/01/28 06:33:25;;;;;;;22.03;11.50;;;4.60;99.90;;;;;;5062596;28;20229;-89
2022/01/28 06:35:51;;;;;;;19.07;12.00;;;4.50;99.90;;;;;;5046232;28;20220;-89
2022/01/28 06:38:17;;;;;;;19.60;12.57;;;4.40;99.90;;;;;;5064167;28;20177;-90
2022/01/28 06:40:43;;;;;;;24.27;13.20;;;4.50;99.90;;;;;;5070455;28;20176;-90
2022/01/28 06:43:11;;;;;;;20.13;13.20;;;4.50;99.90;;;;;;5080763;28;20275;-88
2022/01/28 06:45:39;;;;;;;21.63;12.00;;;4.40;99.90;;;;;;5081132;28;20198;-89
2022/01/28 06:48:08;;;;;;;24.37;12.97;;;4.30;99.90;;;;;;5080867;28;20198;-87
2022/01/28 06:50:36;;;;;;;20.60;12.97;;;4.30;99.90;;;;;;5077432;28;20180;-89
2022/01/28 06:53:07;;;;;;;22.30;14.23;;;4.30;99.90;;;;;;5068585;28;20177;-88
2022/01/28 06:55:36;;;;;;;20.33;14.47;;;4.50;99.90;;;;;;5068749;28;20180;-89
2022/01/28 06:58:03;;;;;;;20.87;13.30;;;4.20;99.90;;;;;;5065518;28;20636;-87
2022/01/28 07:00:35;;;;;;;25.27;15.57;;;4.20;99.90;;;;;;5059049;28;20176;-87
2022/01/28 07:03:01;;;;;;;21.13;14.10;;;4.40;99.90;;;;;;5059987;28;20196;-91
2022/01/28 07:05:27;;;;;;;22.43;15.47;;;4.40;99.90;;;;;;5061020;28;20229;-90
2022/01/28 07:07:54;;;;;;;20.23;14.47;;;4.50;99.90;;;;;;5045654;28;20169;-89
2022/01/28 07:10:20;;;;;;;28.93;15.00;;;4.30;99.90;;;;;;5080000;28;20168;-92
2022/01/28 07:12:46;;;;;;;28.97;15.40;;;4.30;99.90;;;;;;5079575;28;20185;-90
2022/01/28 07:15:14;;;;;;;29.43;17.03;;;4.20;99.90;;;;;;5080432;28;20172;-87
2022/01/28 07:17:39;;;;;;;28.00;15.67;;;4.30;99.90;;;;;;5080179;28;20172;-88
2022/01/28 07:20:11;;;;;;;33.70;17.40;;;4.20;99.90;;;;;;5073624;28;20218;-88
2022/01/28 07:22:49;;;;;;;29.13;17.37;;;4.20;99.90;;;;;;5061968;28;20207;-88
2022/01/28 07:25:18;;;;;;;27.20;18.73;;;4.30;99.90;;;;;;5071904;28;20262;-89
2022/01/28 07:27:49;;;;;;;34.30;17.97;;;4.10;99.90;;;;;;5083347;28;20286;-87
2022/01/28 07:30:15;;;;;;;32.43;18.40;;;4.20;99.90;;;;;;5059853;28;20539;-90
2022/01/28 07:32:42;;;;;;;39.73;19.47;;;4.20;99.90;;;;;;5058686;28;20228;-88
2022/01/28 07:35:08;;;;;;;36.37;19.03;;;4.30;99.90;;;;;;5055261;28;20231;-85
2022/01/28 07:37:37;;;;;;;39.63;21.37;;;4.40;99.90;;;;;;5045544;28;20225;-90
2022/01/28 07:40:04;;;;;;;39.90;20.37;;;4.40;99.90;;;;;;5031133;28;20537;-86
2022/01/28 07:42:35;;;;;;;46.37;21.90;;;4.40;99.90;;;;;;5075911;28;20168;-89
2022/01/28 07:45:02;;;;;;;51.03;20.53;;;4.40;99.90;;;;;;5046213;28;20200;-85
2022/01/28 07:47:28;;;;;;;47.57;20.70;;;4.20;99.90;;;;;;5073224;28;20160;-86
2022/01/28 07:49:56;;;;;;;47.80;23.27;;;4.30;99.90;;;;;;5054865;28;20168;-87
2022/01/28 07:52:21;;;;;;;44.07;21.03;;;4.30;99.90;;;;;;5052702;28;20172;-86
2022/01/28 07:54:50;;;;;;;54.63;22.23;;;4.30;99.90;;;;;;5053405;28;20168;-86
2022/01/28 07:57:41;;;;;;;102.83;24.73;;;4.30;99.90;;;;;;5063586;28;20646;-88
2022/01/28 08:00:11;;;;;;;70.00;22.57;;;4.40;99.90;;;;;;5052315;28;20168;-88
2022/01/28 08:02:37;;;;;;;86.90;23.40;;;4.40;99.90;;;;;;5054285;28;20173;-90
2022/01/28 08:05:09;;;;;;;57.57;22.93;;;4.40;99.90;;;;;;5054368;28;20172;-89
2022/01/28 08:07:35;;;;;;;36.57;21.13;;;4.50;99.90;;;;;;5057508;28;20628;-89
2022/01/28 08:10:00;;;;;;;44.57;21.37;;;4.50;99.90;;;;;;5053529;28;20171;-90
2022/01/28 08:12:29;;;;;;;47.63;22.03;;;4.50;99.90;;;;;;5058548;28;20197;-89
2022/01/28 08:14:54;;;;;;;52.00;21.40;;;4.40;99.90;;;;;;5058200;28;20195;-87
2022/01/28 08:17:25;;;;;;;40.87;21.90;;;4.50;99.90;;;;;;5057096;28;20724;-91
2022/01/28 08:19:59;;;;;;;51.77;21.90;;;4.50;99.90;;;;;;5050060;28;20203;-92
2022/01/28 08:22:24;;;;;;;51.70;21.57;;;4.40;99.90;;;;;;5034878;28;20176;-89
2022/01/28 08:24:51;;;;;;;71.00;21.63;;;4.30;99.90;;;;;;5050369;28;20275;-89
2022/01/28 08:27:18;;;;;;;48.23;21.90;;;4.30;99.90;;;;;;5042396;28;20227;-89
2022/01/28 08:29:44;;;;;;;44.30;21.33;;;4.20;99.90;;;;;;5049951;28;20181;-88
2022/01/28 08:32:10;;;;;;;64.60;21.27;;;4.40;99.90;;;;;;5060636;28;20234;-89
2022/01/28 08:34:35;;;;;;;61.03;22.97;;;4.40;99.90;;;;;;5061051;28;20242;-89
2022/01/28 08:37:04;;;;;;;35.10;21.60;;;4.40;99.90;;;;;;5044871;28;20579;-89
2022/01/28 08:39:32;;;;;;;56.87;22.80;;;4.50;99.90;;;;;;5060998;28;20233;-88
2022/01/28 08:41:59;;;;;;;64.30;23.10;;;4.40;99.90;;;;;;5061796;28;20221;-90
2022/01/28 08:44:26;;;;;;;54.00;23.97;;;4.30;99.90;;;;;;5046955;28;20524;-89
2022/01/28 08:46:51;;;;;;;42.03;22.97;;;4.40;99.90;;;;;;5043772;28;20189;-90
2022/01/28 08:49:17;;;;;;;124.77;25.67;;;4.70;99.90;;;;;;5043564;28;20176;-88
2022/01/28 08:51:48;;;;;;;81.00;25.50;;;4.50;99.90;;;;;;5041686;28;20185;-90
2022/01/28 08:54:14;;;;;;;56.57;24.20;;;4.60;99.90;;;;;;5066831;28;20184;-89
2022/01/28 08:56:41;;;;;;;57.43;24.00;;;4.60;99.90;;;;;;5078994;28;20213;-88
2022/01/28 08:59:08;;;;;;;53.30;24.47;;;4.60;99.90;;;;;;5067778;28;20206;-89
2022/01/28 09:01:33;;;;;;;48.10;24.23;;;4.50;99.90;;;;;;5063173;28;20215;-89
2022/01/28 09:04:02;;;;;;;50.63;25.43;;;4.70;99.90;;;;;;5062696;28;20636;-88
2022/01/28 09:06:28;;;;;;;61.07;23.33;;;4.80;99.90;;;;;;5060718;28;20516;-90
2022/01/28 09:09:00;;;;;;;57.13;24.07;;;4.90;99.90;;;;;;5055141;28;20240;-87
2022/01/28 09:13:52;;;;;;;71.77;23.13;;;5.10;99.90;;;;;;5075647;28;20189;-89
2022/01/28 09:16:21;;;;;;;49.57;22.10;;;5.30;99.90;;;;;;5050249;28;20201;-90
2022/01/28 09:18:47;;;;;;;48.03;25.10;;;5.20;99.90;;;;;;5064826;28;20172;-90
2022/01/28 09:21:14;;;;;;;44.03;23.10;;;5.10;99.90;;;;;;5048271;28;20184;-89
2022/01/28 09:23:46;;;;;;;63.57;21.57;;;4.90;99.90;;;;;;5044594;28;20177;-90
2022/01/28 09:26:12;;;;;;;43.70;21.70;;;5.00;99.90;;;;;;5064367;28;20267;-89
2022/01/28 09:28:42;;;;;;;43.47;20.40;;;4.90;99.90;;;;;;5079740;28;20307;-86
2022/01/28 09:31:08;;;;;;;60.73;21.23;;;4.80;99.90;;;;;;5048977;28;20208;-87
2022/01/28 09:33:37;;;;;;;44.97;22.27;;;4.80;99.90;;;;;;5070435;28;20206;-88
2022/01/28 09:36:05;;;;;;;42.07;21.60;;;4.70;99.90;;;;;;5071162;28;20282;-87
2022/01/28 09:38:32;;;;;;;41.57;22.57;;;4.60;99.90;;;;;;5060177;28;20180;-88
2022/01/28 09:41:03;;;;;;;45.53;21.03;;;4.60;99.90;;;;;;5071878;28;20194;-88
2022/01/28 09:43:29;;;;;;;42.97;21.17;;;4.60;99.90;;;;;;5074190;28;20223;-86
2022/01/28 09:46:13;;;;;;;41.77;21.97;;;4.50;99.90;;;;;;5068501;28;20193;-87
2022/01/28 09:48:44;;;;;;;39.13;18.73;;;4.60;99.90;;;;;;5060421;28;20207;-89
2022/01/28 09:51:11;;;;;;;37.10;20.10;;;4.70;99.90;;;;;;5054449;28;20701;-87
2022/01/28 09:53:57;;;;;;;46.00;19.93;;;4.60;99.90;;;;;;5049842;28;20180;-89
2022/01/28 09:56:25;;;;;;;50.53;20.27;;;4.50;99.90;;;;;;5057397;28;20253;-88
2022/01/28 09:58:57;;;;;;;35.80;20.80;;;4.50;99.90;;;;;;5064464;28;20247;-89
2022/01/28 10:01:31;;;;;;;40.03;20.93;;;4.50;99.90;;;;;;5066131;28;20187;-86
2022/01/28 10:04:45;;;;;;;66.10;22.23;;;4.70;99.90;;;;;;5078931;28;20186;-89
2022/01/28 10:07:16;;;;;;;81.60;22.10;;;4.90;99.90;;;;;;5075021;28;20274;-89
2022/01/28 10:09:56;;;;;;;41.67;20.27;;;4.90;99.90;;;;;;5074880;28;20187;-88
2022/01/28 10:12:35;;;;;;;48.17;21.10;;;4.80;99.90;;;;;;5058716;28;20229;-88
2022/01/28 10:15:16;;;;;;;79.73;23.13;;;4.90;99.90;;;;;;5063133;28;20200;-89
2022/01/28 10:17:57;;;;;;;71.33;21.77;;;5.10;99.90;;;;;;5060974;28;20192;-90
2022/01/28 10:20:25;;;;;;;51.20;22.57;;;5.10;99.90;;;;;;5061421;28;20188;-88
2022/01/28 10:23:04;;;;;;;69.43;23.50;;;5.10;99.90;;;;;;5069019;28;20260;-88
2022/01/28 10:25:34;;;;;;;51.93;22.60;;;5.30;99.90;;;;;;5056919;28;20399;-88
2022/01/28 10:28:12;;;;;;;37.93;21.70;;;5.30;99.90;;;;;;5045725;28;20187;-89
2022/01/28 10:30:42;;;;;;;45.43;22.63;;;5.40;99.90;;;;;;5049129;28;20169;-89
2022/01/28 10:33:26;;;;;;;43.33;21.90;;;5.40;99.90;;;;;;5051228;28;20677;-88
2022/01/28 10:36:00;;;;;;;53.90;23.17;;;5.30;99.90;;;;;;5037070;28;20276;-89
2022/01/28 10:38:37;;;;;;;27.57;21.87;;;5.30;99.90;;;;;;5079833;28;20176;-88
2022/01/28 10:41:06;;;;;;;51.13;22.33;;;5.30;99.90;;;;;;5058309;28;20705;-90
2022/01/28 10:43:31;;;;;;;66.57;23.30;;;5.20;99.90;;;;;;5056413;28;20196;-90
2022/01/28 10:46:06;;;;;;;61.67;23.20;;;5.40;99.90;;;;;;5051398;28;20268;-89
2022/01/28 10:48:46;;;;;;;43.53;22.27;;;5.10;99.90;;;;;;5055880;28;20188;-89
2022/01/28 10:51:12;;;;;;;60.63;22.87;;;5.10;99.90;;;;;;5079452;28;20163;-91
2022/01/28 10:53:37;;;;;;;43.30;23.40;;;5.20;99.90;;;;;;5048509;28;20279;-90
2022/01/28 10:56:11;;;;;;;36.67;23.40;;;5.20;99.90;;;;;;5061989;28;20220;-89
2022/01/28 10:58:37;;;;;;;42.80;24.07;;;5.20;99.90;;;;;;5068469;28;20180;-90
2022/01/28 11:01:04;;;;;;;79.83;24.33;;;5.40;99.90;;;;;;5039753;28;20176;-90
2022/01/28 11:03:31;;;;;;;50.90;23.80;;;5.50;99.90;;;;;;5044683;28;20219;-89
2022/01/28 11:06:00;;;;;;;48.50;26.00;;;5.50;99.90;;;;;;5071275;28;20199;-89
2022/01/28 11:08:31;;;;;;;45.80;26.40;;;5.50;99.90;;;;;;5054343;28;20184;-88
2022/01/28 11:10:58;;;;;;;39.57;23.77;;;5.40;99.90;;;;;;5062608;28;20182;-89
2022/01/28 11:13:24;;;;;;;46.27;25.00;;;5.40;99.90;;;;;;5069553;28;20180;-89
2022/01/28 11:15:50;;;;;;;45.50;25.67;;;5.40;99.90;;;;;;5074990;28;20209;-90
2022/01/28 11:18:19;;;;;;;92.03;24.40;;;5.40;99.90;;;;;;5084838;28;20184;-91
2022/01/28 11:20:59;;;;;;;55.40;26.57;;;5.60;99.90;;;;;;5061323;28;20171;-90
2022/01/28 11:23:57;;;;;;;71.87;27.70;;;5.50;99.90;;;;;;5082046;28;20267;-90
2022/01/28 11:26:44;;;;;;;72.93;26.00;;;5.70;99.90;;;;;;5077607;28;20161;-91
2022/01/28 11:29:20;;;;;;;54.20;25.03;;;5.60;99.90;;;;;;5050834;28;20188;-92
2022/01/28 11:31:52;;;;;;;48.50;25.63;;;5.60;99.90;;;;;;5062645;28;20192;-92
2022/01/28 11:34:29;;;;;;;35.73;25.97;;;5.60;99.90;;;;;;5085038;28;20184;-93
2022/01/28 11:36:59;;;;;;;57.07;30.27;;;5.80;99.90;;;;;;5068478;28;20191;-92
2022/01/28 11:39:46;;;;;;;64.50;29.87;;;5.80;99.90;;;;;;5071949;28;20184;-93
2022/01/28 11:42:17;;;;;;;65.93;29.30;;;5.90;99.90;;;;;;5085500;28;20190;-91
2022/01/28 11:45:12;;;;;;;48.03;28.07;;;5.90;99.90;;;;;;5083864;28;20210;-92
2022/01/28 11:47:56;;;;;;;64.80;29.93;;;5.90;99.90;;;;;;5075905;28;20191;-89
2022/01/28 11:50:23;;;;;;;59.53;29.53;;;5.90;99.90;;;;;;5071162;28;20637;-90
2022/01/28 11:52:54;;;;;;;62.37;29.40;;;5.90;99.90;;;;;;5056639;28;20235;-93
2022/01/28 11:55:39;;;;;;;49.40;30.40;;;5.90;99.90;;;;;;5049657;28;20189;-90
2022/01/28 11:58:07;;;;;;;55.30;28.17;;;5.80;99.90;;;;;;5049379;28;20188;-91
2022/01/28 12:00:46;;;;;;;55.87;30.23;;;6.00;99.90;;;;;;5047605;28;20214;-90
2022/01/28 12:03:22;;;;;;;53.40;28.07;;;5.90;99.90;;;;;;5065529;28;20714;-89
2022/01/28 12:05:47;;;;;;;50.97;27.80;;;6.00;99.90;;;;;;5061700;28;20165;-89
2022/01/28 12:08:18;;;;;;;64.87;31.93;;;6.10;99.90;;;;;;5067085;28;20165;-91
2022/01/28 12:10:49;;;;;;;55.07;31.03;;;6.30;99.90;;;;;;5060901;28;20204;-92
2022/01/28 12:13:46;;;;;;;61.43;33.03;;;6.20;99.90;;;;;;5070966;28;20188;-92
2022/01/28 12:16:24;;;;;;;67.40;30.37;;;6.30;99.90;;;;;;5065336;28;20295;-92
2022/01/28 12:18:53;;;;;;;73.90;31.57;;;6.10;99.90;;;;;;5050303;28;20230;-93
2022/01/28 12:21:31;;;;;;;48.77;29.03;;;6.10;99.90;;;;;;5092670;23;20243;-90
2022/01/28 12:24:23;;;;;;;54.37;30.77;;;5.90;99.90;;;;;;5091560;28;20167;-92
2022/01/28 12:27:19;;;;;;;59.70;32.90;;;5.90;99.90;;;;;;5086450;28;20808;-91
2022/01/28 12:29:49;;;;;;;62.77;33.53;;;6.00;99.90;;;;;;5069104;28;20183;-91
2022/01/28 12:32:25;;;;;;;55.63;34.27;;;6.10;99.90;;;;;;5059756;28;20195;-90
2022/01/28 12:34:51;;;;;;;61.47;32.47;;;6.10;99.90;;;;;;5087812;28;20180;-90
2022/01/28 12:37:22;;;;;;;55.87;32.33;;;6.10;99.90;;;;;;5083026;28;20302;-91
2022/01/28 12:40:03;;;;;;;57.77;35.50;;;6.20;99.90;;;;;;5084052;28;20174;-89
2022/01/28 12:42:32;;;;;;;64.67;33.93;;;6.30;99.90;;;;;;5080239;28;20167;-89
2022/01/28 12:45:00;;;;;;;72.67;36.93;;;6.40;99.90;;;;;;5080629;28;20496;-89
2022/01/28 12:47:31;;;;;;;66.03;35.40;;;6.20;99.90;;;;;;5081489;28;20266;-90
2022/01/28 12:50:04;;;;;;;66.57;37.40;;;6.20;99.90;;;;;;5083995;28;20190;-89
2022/01/28 12:52:32;;;;;;;60.53;35.20;;;6.20;99.90;;;;;;5104381;28;20172;-89
2022/01/28 12:54:57;;;;;;;68.83;36.50;;;6.10;99.90;;;;;;5081719;28;20203;-91
2022/01/28 12:57:24;;;;;;;66.57;36.87;;;6.20;99.90;;;;;;5103803;28;20207;-91
2022/01/28 12:59:50;;;;;;;64.00;36.87;;;6.20;99.90;;;;;;5085312;28;20266;-90
2022/01/28 13:02:18;;;;;;;70.83;37.50;;;6.20;99.90;;;;;;5085582;28;20270;-88
2022/01/28 13:10:26;;;;;;;61.23;34.40;;;6.10;99.90;;;;;;5099096;28;20190;-89
2022/01/28 13:13:06;;;;;;;67.37;31.73;;;6.10;99.90;;;;;;5073373;28;20201;-89
2022/01/28 13:15:31;;;;;;;64.93;33.33;;;6.20;99.90;;;;;;5080338;28;20182;-88
2022/01/28 13:18:00;;;;;;;55.30;34.00;;;6.30;99.90;;;;;;5082238;28;20175;-90
2022/01/28 13:20:39;;;;;;;66.90;35.03;;;6.20;99.90;;;;;;5080261;28;20623;-90
2022/01/28 13:23:10;;;;;;;66.07;34.90;;;6.20;99.90;;;;;;5097082;28;20312;-91
2022/01/28 13:25:37;;;;;;;66.10;32.70;;;6.40;99.90;;;;;;5081795;28;20226;-89
2022/01/28 13:28:11;;;;;;;67.13;32.33;;;6.30;99.90;;;;;;5089620;28;20187;-90
2022/01/28 13:30:39;;;;;;;63.57;33.73;;;6.30;99.90;;;;;;5081981;28;20289;-89
2022/01/28 13:33:07;;;;;;;62.17;33.67;;;6.30;99.90;;;;;;5068167;28;20202;-89
2022/01/28 13:35:36;;;;;;;67.50;34.93;;;6.40;99.90;;;;;;5080721;28;20176;-91
2022/01/28 13:38:23;;;;;;;68.50;34.33;;;6.40;99.90;;;;;;5083064;28;20233;-88
2022/01/28 13:40:49;;;;;;;66.50;33.30;;;6.50;99.90;;;;;;5092390;28;20197;-90
2022/01/28 13:43:23;;;;;;;64.57;34.33;;;6.60;99.90;;;;;;5123766;28;20179;-89
2022/01/28 13:45:59;;;;;;;66.70;34.83;;;6.60;99.90;;;;;;5087735;28;20178;-89
2022/01/28 13:48:39;;;;;;;67.67;34.57;;;6.50;99.90;;;;;;5076896;28;20259;-92
2022/01/28 13:51:17;;;;;;;60.60;36.13;;;6.70;99.90;;;;;;5082683;28;20190;-90
2022/01/28 13:56:32;;;;;;;60.60;33.80;;;6.80;99.90;;;;;;5096586;28;20203;-89
2022/01/28 13:58:59;;;;;;;65.20;34.73;;;6.90;99.90;;;;;;5095270;28;20172;-88
2022/01/28 14:01:27;;;;;;;58.27;32.50;;;6.70;99.90;;;;;;5096255;28;20200;-90
2022/01/28 14:04:02;;;;;;;65.23;33.17;;;6.60;99.90;;;;;;5096057;28;20625;-89
2022/01/28 14:06:35;;;;;;;66.47;33.33;;;6.70;99.90;;;;;;5094408;28;20190;-90
2022/01/28 14:09:11;;;;;;;63.43;32.83;;;7.00;99.90;;;;;;5089108;28;20175;-88
2022/01/28 14:12:00;;;;;;;61.53;31.73;;;6.80;99.90;;;;;;5083702;28;20186;-90
2022/01/28 14:14:42;;;;;;;58.67;30.53;;;6.70;99.90;;;;;;5075611;28;20262;-91
2022/01/28 14:17:11;;;;;;;65.53;32.50;;;6.80;99.90;;;;;;5088789;28;20219;-89
2022/01/28 14:19:41;;;;;;;64.60;33.17;;;6.80;99.90;;;;;;5085607;28;20183;-91
2022/01/28 14:22:12;;;;;;;60.73;32.60;;;7.00;99.90;;;;;;5081977;28;20176;-91
2022/01/28 14:24:40;;;;;;;59.47;33.07;;;7.10;99.90;;;;;;5081925;28;20182;-91
2022/01/28 14:27:45;;;;;;;59.20;33.30;;;7.20;99.90;;;;;;5083625;28;20173;-95
2022/01/28 14:30:17;;;;;;;62.30;33.10;;;7.40;99.90;;;;;;5102536;28;20180;-93
2022/01/28 14:32:43;;;;;;;62.80;30.97;;;7.20;99.90;;;;;;5090899;28;20263;-93
2022/01/28 14:35:10;;;;;;;60.83;32.70;;;7.10;99.90;;;;;;5086997;28;20892;-92
2022/01/28 14:37:40;;;;;;;57.47;32.87;;;7.10;99.90;;;;;;5085922;28;20203;-88
2022/01/28 14:40:10;;;;;;;56.60;33.27;;;7.10;99.90;;;;;;5097144;28;20160;-90
2022/01/28 14:42:45;;;;;;;58.27;33.77;;;7.20;99.90;;;;;;5095914;28;20172;-91
2022/01/28 14:45:12;;;;;;;59.97;34.97;;;7.00;99.90;;;;;;5099116;28;20180;-90